createdAt,value
2018-07-10T00:00:25.008Z,1002.14
2018-07-10T00:01:25.032Z,1002.15
2018-07-10T00:02:25.005Z,1002.17
2018-07-10T00:03:24.973Z,1002.15
2018-07-10T00:04:24.962Z,1002.15
2018-07-10T00:05:24.947Z,1002.11
2018-07-10T00:06:24.933Z,1002.11
2018-07-10T00:07:24.998Z,1002.14
2018-07-10T00:08:24.912Z,1002.17
2018-07-10T00:09:24.921Z,1002.15
2018-07-10T00:10:24.887Z,1002.07
2018-07-10T00:11:24.891Z,1002.06
2018-07-10T00:12:24.913Z,1002.05
2018-07-10T00:13:24.890Z,1002.06
2018-07-10T00:14:24.847Z,1002.04
2018-07-10T00:15:24.838Z,1002.02
2018-07-10T00:16:24.833Z,1002.05
2018-07-10T00:17:24.842Z,1002.00
2018-07-10T00:18:24.808Z,1002.01
2018-07-10T00:19:24.834Z,1002.01
2018-07-10T00:20:24.786Z,1001.96
2018-07-10T00:21:24.773Z,1001.98
2018-07-10T00:22:24.792Z,1001.98
2018-07-10T00:23:24.754Z,1001.99
2018-07-10T00:24:24.740Z,1001.99
2018-07-10T00:25:24.775Z,1002.02
2018-07-10T00:26:24.716Z,1002.04
2018-07-10T00:27:24.736Z,1002.06
2018-07-10T00:28:24.693Z,1002.04
2018-07-10T00:29:24.690Z,1002.09
2018-07-10T00:30:24.678Z,1002.07
2018-07-10T00:31:24.724Z,1002.07
2018-07-10T00:32:24.684Z,1002.05
2018-07-10T00:33:24.645Z,1002.03
2018-07-10T00:34:24.632Z,1002.00
2018-07-10T00:35:24.615Z,1001.96
2018-07-10T00:36:24.604Z,1002.00
2018-07-10T00:37:24.669Z,1002.00
2018-07-10T00:38:24.586Z,1001.96
2018-07-10T00:39:24.593Z,1001.98
2018-07-10T00:40:24.569Z,1001.96
2018-07-10T00:41:24.550Z,1001.94
2018-07-10T00:42:24.570Z,1001.96
2018-07-10T00:43:24.579Z,1001.92
2018-07-10T00:44:24.523Z,1001.93
2018-07-10T00:45:24.523Z,1001.95
2018-07-10T00:46:24.504Z,1001.94
2018-07-10T00:47:24.520Z,1001.95
2018-07-10T00:48:24.479Z,1001.98
2018-07-10T00:49:24.506Z,1001.96
2018-07-10T00:50:24.458Z,1001.97
2018-07-10T00:51:24.447Z,1001.95
2018-07-10T00:52:24.462Z,1001.96
2018-07-10T00:53:24.422Z,1002.03
2018-07-10T00:54:24.426Z,1002.07
2018-07-10T00:55:24.445Z,1002.07
2018-07-10T00:56:24.393Z,1002.05
2018-07-10T00:57:24.408Z,1002.03
2018-07-10T00:58:24.367Z,1002.05
2018-07-10T00:59:24.356Z,1002.05
2018-07-10T01:00:24.349Z,1002.07
2018-07-10T01:01:24.378Z,1002.05
2018-07-10T01:02:24.354Z,1002.06
2018-07-10T01:03:24.322Z,1002.13
2018-07-10T01:04:24.305Z,1002.09
2018-07-10T01:05:24.298Z,1002.10
2018-07-10T01:06:24.281Z,1002.12
2018-07-10T01:07:24.349Z,1002.08
2018-07-10T01:08:24.266Z,1002.02
2018-07-10T01:09:24.245Z,1001.97
2018-07-10T01:10:24.245Z,1001.97
2018-07-10T01:11:24.226Z,1001.95
2018-07-10T01:12:24.222Z,1001.95
2018-07-10T01:13:24.264Z,1001.90
2018-07-10T01:14:24.202Z,1001.95
2018-07-10T01:15:24.178Z,1001.91
2018-07-10T01:16:24.169Z,1001.91
2018-07-10T01:17:24.155Z,1001.91
2018-07-10T01:18:24.174Z,1001.89
2018-07-10T01:19:24.180Z,1001.92
2018-07-10T01:20:24.130Z,1001.89
2018-07-10T01:21:24.116Z,1001.93
2018-07-10T01:22:24.109Z,1001.91
2018-07-10T01:23:24.116Z,1001.89
2018-07-10T01:24:24.080Z,1001.90
2018-07-10T01:25:24.120Z,1001.90
2018-07-10T01:26:24.062Z,1001.84
2018-07-10T01:27:24.063Z,1001.89
2018-07-10T01:28:24.067Z,1001.86
2018-07-10T01:29:24.024Z,1001.83
2018-07-10T01:30:24.020Z,1001.82
2018-07-10T01:31:24.046Z,1001.84
2018-07-10T01:32:23.989Z,1001.82
2018-07-10T01:33:24.006Z,1001.84
2018-07-10T01:34:23.975Z,1001.81
2018-07-10T01:35:23.962Z,1001.83
2018-07-10T01:36:23.960Z,1001.88
2018-07-10T01:37:23.968Z,1001.92
2018-07-10T01:38:23.951Z,1001.91
2018-07-10T01:39:23.920Z,1001.91
2018-07-10T01:40:23.902Z,1001.85
2018-07-10T01:41:23.901Z,1001.85
2018-07-10T01:42:23.882Z,1001.80
2018-07-10T01:43:23.927Z,1001.85
2018-07-10T01:44:23.857Z,1001.85
2018-07-10T01:45:23.847Z,1001.86
2018-07-10T01:46:23.834Z,1001.81
2018-07-10T01:47:23.827Z,1001.82
2018-07-10T01:48:23.842Z,1001.81
2018-07-10T01:49:23.847Z,1001.82
2018-07-10T01:50:23.790Z,1001.83
2018-07-10T01:51:23.781Z,1001.80
2018-07-10T01:52:23.772Z,1001.84
2018-07-10T01:53:23.781Z,1001.91
2018-07-10T01:54:23.743Z,1001.86
2018-07-10T01:55:23.806Z,1001.91
2018-07-10T01:56:23.774Z,1001.89
2018-07-10T01:57:23.714Z,1001.91
2018-07-10T01:58:23.726Z,1001.90
2018-07-10T01:59:23.698Z,1001.87
2018-07-10T02:00:23.682Z,1001.84
2018-07-10T02:01:23.703Z,1001.89
2018-07-10T02:02:23.666Z,1001.89
2018-07-10T02:03:23.671Z,1001.92
2018-07-10T02:04:23.635Z,1001.88
2018-07-10T02:05:23.629Z,1001.87
2018-07-10T02:06:23.622Z,1001.86
2018-07-10T02:07:23.638Z,1001.82
2018-07-10T02:08:23.610Z,1001.87
2018-07-10T02:09:23.591Z,1001.89
2018-07-10T02:10:23.567Z,1001.85
2018-07-10T02:11:23.565Z,1001.89
2018-07-10T02:12:23.542Z,1001.88
2018-07-10T02:13:23.615Z,1001.89
2018-07-10T02:14:23.522Z,1001.90
2018-07-10T02:15:23.515Z,1001.83
2018-07-10T02:16:23.502Z,1001.87
2018-07-10T02:17:23.489Z,1001.86
2018-07-10T02:18:23.508Z,1001.89
2018-07-10T02:19:23.508Z,1001.85
2018-07-10T02:20:23.460Z,1001.79
2018-07-10T02:21:23.456Z,1001.80
2018-07-10T02:22:23.432Z,1001.87
2018-07-10T02:23:23.450Z,1001.86
2018-07-10T02:24:23.410Z,1001.84
2018-07-10T02:25:23.433Z,1001.86
2018-07-10T02:26:23.397Z,1001.88
2018-07-10T02:27:23.376Z,1001.92
2018-07-10T02:28:23.390Z,1001.87
2018-07-10T02:29:23.365Z,1001.85
2018-07-10T02:30:23.344Z,1001.89
2018-07-10T02:31:23.370Z,1001.82
2018-07-10T02:32:23.329Z,1001.83
2018-07-10T02:33:23.338Z,1001.87
2018-07-10T02:34:23.303Z,1001.85
2018-07-10T02:35:23.288Z,1001.84
2018-07-10T02:36:23.285Z,1001.84
2018-07-10T02:37:23.293Z,1001.83
2018-07-10T02:38:23.280Z,1001.84
2018-07-10T02:39:23.244Z,1001.88
2018-07-10T02:40:23.234Z,1001.83
2018-07-10T02:41:23.222Z,1001.84
2018-07-10T02:42:23.215Z,1001.81
2018-07-10T02:43:23.270Z,1001.85
2018-07-10T02:44:23.190Z,1001.84
2018-07-10T02:45:23.176Z,1001.83
2018-07-10T02:46:23.167Z,1001.87
2018-07-10T02:47:23.152Z,1001.77
2018-07-10T02:48:23.176Z,1001.83
2018-07-10T02:49:23.168Z,1001.82
2018-07-10T02:50:23.129Z,1001.85
2018-07-10T02:51:23.115Z,1001.83
2018-07-10T02:52:23.140Z,1001.86
2018-07-10T02:53:23.118Z,1001.81
2018-07-10T02:54:23.107Z,1001.81
2018-07-10T02:55:23.095Z,1001.87
2018-07-10T02:56:23.068Z,1001.81
2018-07-10T02:57:23.043Z,1001.86
2018-07-10T02:58:23.046Z,1001.87
2018-07-10T02:59:23.046Z,1001.79
2018-07-10T03:00:23.055Z,1001.80
2018-07-10T03:01:23.007Z,1001.77
2018-07-10T03:02:22.992Z,1001.77
2018-07-10T03:03:22.975Z,1001.76
2018-07-10T03:04:22.995Z,1001.80
2018-07-10T03:05:22.960Z,1001.77
2018-07-10T03:06:22.973Z,1001.76
2018-07-10T03:07:22.933Z,1001.78
2018-07-10T03:08:22.923Z,1001.77
2018-07-10T03:09:22.936Z,1001.80
2018-07-10T03:10:22.904Z,1001.81
2018-07-10T03:11:22.887Z,1001.85
2018-07-10T03:12:22.920Z,1001.93
2018-07-10T03:13:22.865Z,1001.88
2018-07-10T03:14:22.877Z,1001.90
2018-07-10T03:15:22.880Z,1001.87
2018-07-10T03:16:22.833Z,1001.88
2018-07-10T03:17:22.830Z,1001.86
2018-07-10T03:18:22.837Z,1001.89
2018-07-10T03:19:22.825Z,1001.85
2018-07-10T03:20:22.789Z,1001.89
2018-07-10T03:21:22.776Z,1001.88
2018-07-10T03:22:22.766Z,1001.88
2018-07-10T03:23:22.755Z,1001.85
2018-07-10T03:24:22.804Z,1001.86
2018-07-10T03:25:22.732Z,1001.83
2018-07-10T03:26:22.717Z,1001.83
2018-07-10T03:27:22.709Z,1001.83
2018-07-10T03:28:22.701Z,1001.81
2018-07-10T03:29:22.711Z,1001.84
2018-07-10T03:30:22.711Z,1001.86
2018-07-10T03:31:22.669Z,1001.87
2018-07-10T03:32:22.655Z,1001.89
2018-07-10T03:33:22.645Z,1001.91
2018-07-10T03:34:22.653Z,1001.86
2018-07-10T03:35:22.619Z,1001.87
2018-07-10T03:36:22.677Z,1001.85
2018-07-10T03:37:22.602Z,1001.87
2018-07-10T03:38:22.589Z,1001.86
2018-07-10T03:39:22.600Z,1001.85
2018-07-10T03:40:22.566Z,1001.81
2018-07-10T03:41:22.550Z,1001.84
2018-07-10T03:42:22.601Z,1001.79
2018-07-10T03:43:22.529Z,1001.82
2018-07-10T03:44:22.548Z,1001.86
2018-07-10T03:45:22.510Z,1001.86
2018-07-10T03:46:22.499Z,1001.85
2018-07-10T03:47:22.498Z,1001.85
2018-07-10T03:48:22.548Z,1001.87
2018-07-10T03:49:22.484Z,1001.86
2018-07-10T03:50:22.456Z,1001.91
2018-07-10T03:51:22.447Z,1001.86
2018-07-10T03:52:22.428Z,1001.84
2018-07-10T03:53:22.417Z,1001.85
2018-07-10T03:54:22.458Z,1001.84
2018-07-10T03:55:22.398Z,1001.86
2018-07-10T03:56:22.388Z,1001.87
2018-07-10T03:57:22.378Z,1001.86
2018-07-10T03:58:22.363Z,1001.86
2018-07-10T03:59:22.375Z,1001.92
2018-07-10T04:00:22.375Z,1001.91
2018-07-10T04:01:22.335Z,1001.94
2018-07-10T04:02:22.321Z,1001.93
2018-07-10T04:03:22.307Z,1001.93
2018-07-10T04:04:22.326Z,1001.92
2018-07-10T04:05:22.288Z,1001.90
2018-07-10T04:06:22.312Z,1001.88
2018-07-10T04:07:22.268Z,1001.89
2018-07-10T04:08:22.251Z,1001.92
2018-07-10T04:09:22.275Z,1001.91
2018-07-10T04:10:22.232Z,1001.92
2018-07-10T04:11:22.220Z,1001.92
2018-07-10T04:12:22.239Z,1001.91
2018-07-10T04:13:22.201Z,1001.92
2018-07-10T04:14:22.211Z,1001.90
2018-07-10T04:15:22.176Z,1001.93
2018-07-10T04:16:22.163Z,1002.02
2018-07-10T04:17:22.155Z,1002.00
2018-07-10T04:18:22.229Z,1002.01
2018-07-10T04:19:22.194Z,1002.01
2018-07-10T04:20:22.117Z,1001.99
2018-07-10T04:21:22.148Z,1002.00
2018-07-10T04:22:22.097Z,1001.95
2018-07-10T04:23:22.085Z,1001.94
2018-07-10T04:24:22.130Z,1001.91
2018-07-10T04:25:22.063Z,1001.89
2018-07-10T04:26:22.049Z,1001.87
2018-07-10T04:27:22.041Z,1001.87
2018-07-10T04:28:22.032Z,1001.93
2018-07-10T04:29:22.097Z,1001.90
2018-07-10T04:30:22.006Z,1001.90
2018-07-10T04:31:21.993Z,1001.94
2018-07-10T04:32:21.985Z,1001.95
2018-07-10T04:33:21.974Z,1001.96
2018-07-10T04:34:21.984Z,1001.93
2018-07-10T04:35:21.992Z,1001.97
2018-07-10T04:36:21.953Z,1001.93
2018-07-10T04:37:21.936Z,1001.97
2018-07-10T04:38:21.945Z,1001.93
2018-07-10T04:39:21.909Z,1001.92
2018-07-10T04:40:21.930Z,1001.92
2018-07-10T04:41:21.929Z,1001.92
2018-07-10T04:42:21.899Z,1001.88
2018-07-10T04:43:21.864Z,1001.87
2018-07-10T04:44:21.854Z,1001.88
2018-07-10T04:45:21.861Z,1001.88
2018-07-10T04:46:21.832Z,1001.89
2018-07-10T04:47:21.849Z,1001.88
2018-07-10T04:48:21.813Z,1001.90
2018-07-10T04:49:21.809Z,1001.85
2018-07-10T04:50:21.805Z,1001.86
2018-07-10T04:51:21.777Z,1001.89
2018-07-10T04:52:21.762Z,1001.88
2018-07-10T04:53:21.788Z,1001.86
2018-07-10T04:54:21.744Z,1001.89
2018-07-10T04:55:21.776Z,1001.91
2018-07-10T04:56:21.715Z,1001.88
2018-07-10T04:57:21.705Z,1001.83
2018-07-10T04:58:21.691Z,1001.85
2018-07-10T04:59:21.723Z,1001.86
2018-07-10T05:00:21.703Z,1001.85
2018-07-10T05:01:21.662Z,1001.82
2018-07-10T05:02:21.655Z,1001.84
2018-07-10T05:03:21.633Z,1001.83
2018-07-10T05:04:21.634Z,1001.84
2018-07-10T05:05:21.673Z,1001.86
2018-07-10T05:06:21.604Z,1001.88
2018-07-10T05:07:21.602Z,1001.85
2018-07-10T05:08:21.591Z,1001.88
2018-07-10T05:09:21.577Z,1001.83
2018-07-10T05:10:21.587Z,1001.84
2018-07-10T05:11:21.596Z,1001.82
2018-07-10T05:12:21.543Z,1001.85
2018-07-10T05:13:21.528Z,1001.82
2018-07-10T05:14:21.515Z,1001.78
2018-07-10T05:15:21.525Z,1001.77
2018-07-10T05:16:21.491Z,1001.80
2018-07-10T05:17:21.481Z,1001.76
2018-07-10T05:18:21.477Z,1001.78
2018-07-10T05:19:21.461Z,1001.77
2018-07-10T05:20:21.477Z,1001.80
2018-07-10T05:21:21.474Z,1001.82
2018-07-10T05:22:21.422Z,1001.77
2018-07-10T05:23:21.422Z,1001.79
2018-07-10T05:24:21.408Z,1001.81
2018-07-10T05:25:21.444Z,1001.78
2018-07-10T05:26:21.377Z,1001.80
2018-07-10T05:27:21.379Z,1001.82
2018-07-10T05:28:21.353Z,1001.81
2018-07-10T05:29:21.350Z,1001.78
2018-07-10T05:30:21.362Z,1001.75
2018-07-10T05:31:21.376Z,1001.73
2018-07-10T05:32:21.309Z,1001.75
2018-07-10T05:33:21.302Z,1001.74
2018-07-10T05:34:21.292Z,1001.71
2018-07-10T05:35:21.315Z,1001.73
2018-07-10T05:36:21.269Z,1001.77
2018-07-10T05:37:21.255Z,1001.74
2018-07-10T05:38:21.253Z,1001.70
2018-07-10T05:39:21.260Z,1001.73
2018-07-10T05:40:21.240Z,1001.71
2018-07-10T05:41:21.214Z,1001.72
2018-07-10T05:42:21.203Z,1001.74
2018-07-10T05:43:21.192Z,1001.72
2018-07-10T05:44:21.172Z,1001.70
2018-07-10T05:45:21.197Z,1001.72
2018-07-10T05:46:21.179Z,1001.70
2018-07-10T05:47:21.185Z,1001.71
2018-07-10T05:48:21.129Z,1001.71
2018-07-10T05:49:21.186Z,1001.71
2018-07-10T05:50:21.189Z,1001.69
2018-07-10T05:51:21.102Z,1001.65
2018-07-10T05:52:21.096Z,1001.71
2018-07-10T05:53:21.074Z,1001.70
2018-07-10T05:54:21.088Z,1001.67
2018-07-10T05:55:21.122Z,1001.67
2018-07-10T05:56:21.049Z,1001.68
2018-07-10T05:57:21.029Z,1001.68
2018-07-10T05:58:21.286Z,1001.69
2018-07-10T05:59:21.009Z,1001.72
2018-07-10T06:00:21.172Z,1001.69
2018-07-10T06:01:20.990Z,1001.70
2018-07-10T06:02:20.973Z,1001.67
2018-07-10T06:03:20.976Z,1001.69
2018-07-10T06:04:20.970Z,1001.62
2018-07-10T06:05:20.965Z,1001.69
2018-07-10T06:06:20.934Z,1001.70
2018-07-10T06:07:20.917Z,1001.71
2018-07-10T06:08:20.918Z,1001.64
2018-07-10T06:09:20.897Z,1001.65
2018-07-10T06:10:20.955Z,1001.64
2018-07-10T06:11:20.878Z,1001.64
2018-07-10T06:12:20.861Z,1001.65
2018-07-10T06:13:20.853Z,1001.65
2018-07-10T06:14:20.938Z,1001.71
2018-07-10T06:15:20.936Z,1001.63
2018-07-10T06:16:20.863Z,1001.63
2018-07-10T06:17:20.900Z,1001.63
2018-07-10T06:18:20.857Z,1001.63
2018-07-10T06:19:20.785Z,1001.59
2018-07-10T06:20:20.773Z,1001.58
2018-07-10T06:21:20.784Z,1001.58
2018-07-10T06:22:20.795Z,1001.53
2018-07-10T06:23:20.739Z,1001.56
2018-07-10T06:24:20.734Z,1001.53
2018-07-10T06:25:20.862Z,1001.53
2018-07-10T06:26:20.726Z,1001.52
2018-07-10T06:27:20.703Z,1001.50
2018-07-10T06:28:20.693Z,1001.47
2018-07-10T06:29:20.899Z,1001.45
2018-07-10T06:30:21.982Z,1001.45
2018-07-10T06:31:20.729Z,1001.43
2018-07-10T06:32:20.787Z,1001.44
2018-07-10T06:33:20.629Z,1001.44
2018-07-10T06:34:20.625Z,1001.39
2018-07-10T06:35:20.604Z,1001.39
2018-07-10T06:36:20.631Z,1001.34
2018-07-10T06:37:20.583Z,1001.36
2018-07-10T06:38:20.821Z,1001.33
2018-07-10T06:39:20.567Z,1001.33
2018-07-10T06:40:20.653Z,1001.37
2018-07-10T06:41:21.180Z,1001.35
2018-07-10T06:42:20.524Z,1001.36
2018-07-10T06:43:20.523Z,1001.36
2018-07-10T06:44:20.504Z,1001.34
2018-07-10T06:45:20.532Z,1001.29
2018-07-10T06:46:21.903Z,1001.29
2018-07-10T06:47:21.229Z,1001.31
2018-07-10T06:48:20.709Z,1001.29
2018-07-10T06:49:20.465Z,1001.30
2018-07-10T06:50:20.445Z,1001.29
2018-07-10T06:51:20.448Z,1001.31
2018-07-10T06:52:20.525Z,1001.33
2018-07-10T06:53:20.841Z,1001.30
2018-07-10T06:54:20.536Z,1001.24
2018-07-10T06:55:20.509Z,1001.24
2018-07-10T06:56:21.571Z,1001.26
2018-07-10T06:57:20.404Z,1001.19
2018-07-10T06:58:20.364Z,1001.17
2018-07-10T06:59:20.342Z,1001.22
2018-07-10T07:00:20.327Z,1001.20
2018-07-10T07:01:20.330Z,1001.21
2018-07-10T07:02:20.312Z,1001.16
2018-07-10T07:03:20.491Z,1001.16
2018-07-10T07:04:20.302Z,1001.21
2018-07-10T07:05:20.383Z,1001.19
2018-07-10T07:06:20.316Z,1001.22
2018-07-10T07:07:20.319Z,1001.21
2018-07-10T07:08:20.272Z,1001.22
2018-07-10T07:09:20.233Z,1001.20
2018-07-10T07:10:20.210Z,1001.24
2018-07-10T07:11:20.221Z,1001.24
2018-07-10T07:12:20.360Z,1001.23
2018-07-10T07:13:20.273Z,1001.22
2018-07-10T07:14:20.229Z,1001.18
2018-07-10T07:15:20.357Z,1001.21
2018-07-10T07:16:21.705Z,1001.20
2018-07-10T07:17:20.241Z,1001.18
2018-07-10T07:18:21.038Z,1001.19
2018-07-10T07:19:20.399Z,1001.21
2018-07-10T07:20:22.208Z,1001.24
2018-07-10T07:21:20.310Z,1001.18
2018-07-10T07:22:20.195Z,1001.21
2018-07-10T07:23:20.271Z,1001.14
2018-07-10T07:24:20.074Z,1001.17
2018-07-10T07:25:20.137Z,1001.14
2018-07-10T07:26:20.668Z,1001.14
2018-07-10T07:27:20.099Z,1001.14
2018-07-10T07:28:20.168Z,1001.08
2018-07-10T07:29:20.050Z,1001.12
2018-07-10T07:30:19.996Z,1001.12
2018-07-10T07:31:19.999Z,1001.14
2018-07-10T07:32:19.979Z,1001.11
2018-07-10T07:33:19.953Z,1001.11
2018-07-10T07:34:19.986Z,1001.07
2018-07-10T07:35:19.983Z,1001.12
2018-07-10T07:36:20.023Z,1001.10
2018-07-10T07:37:19.929Z,1001.12
2018-07-10T07:38:19.898Z,1001.11
2018-07-10T07:39:19.888Z,1001.13
2018-07-10T07:40:19.875Z,1001.14
2018-07-10T07:41:20.337Z,1001.11
2018-07-10T07:42:19.928Z,1001.15
2018-07-10T07:43:19.896Z,1001.16
2018-07-10T07:44:19.872Z,1001.17
2018-07-10T07:45:19.839Z,1001.18
2018-07-10T07:46:20.673Z,1001.16
2018-07-10T07:47:20.680Z,1001.16
2018-07-10T07:48:19.797Z,1001.17
2018-07-10T07:49:19.780Z,1001.16
2018-07-10T07:50:19.767Z,1001.18
2018-07-10T07:51:20.178Z,1001.13
2018-07-10T07:52:19.770Z,1001.16
2018-07-10T07:53:19.731Z,1001.15
2018-07-10T07:54:19.793Z,1001.18
2018-07-10T07:55:19.776Z,1001.13
2018-07-10T07:56:20.652Z,1001.13
2018-07-10T07:57:19.686Z,1001.14
2018-07-10T07:58:19.915Z,1001.19
2018-07-10T07:59:19.688Z,1001.10
2018-07-10T08:00:19.725Z,1001.12
2018-07-10T08:01:19.677Z,1001.10
2018-07-10T08:02:19.635Z,1001.09
2018-07-10T08:03:19.632Z,1001.05
2018-07-10T08:04:19.612Z,1001.12
2018-07-10T08:05:19.594Z,1001.11
2018-07-10T08:06:19.587Z,1001.16
2018-07-10T08:07:19.593Z,1001.07
2018-07-10T08:08:19.561Z,1001.04
2018-07-10T08:09:19.553Z,1001.06
2018-07-10T08:10:19.557Z,1001.05
2018-07-10T08:11:19.528Z,1001.07
2018-07-10T08:12:19.561Z,1001.09
2018-07-10T08:13:19.505Z,1001.09
2018-07-10T08:14:19.690Z,1001.08
2018-07-10T08:15:19.484Z,1001.07
2018-07-10T08:16:19.512Z,1001.03
2018-07-10T08:17:19.482Z,1001.03
2018-07-10T08:18:19.449Z,1001.04
2018-07-10T08:19:19.559Z,1001.02
2018-07-10T08:20:19.467Z,1001.05
2018-07-10T08:21:19.417Z,1001.02
2018-07-10T08:22:19.630Z,1001.04
2018-07-10T08:23:19.422Z,1001.02
2018-07-10T08:24:19.612Z,1001.04
2018-07-10T08:25:19.405Z,1000.99
2018-07-10T08:26:19.363Z,1001.03
2018-07-10T08:27:19.391Z,1000.96
2018-07-10T08:28:19.354Z,1000.96
2018-07-10T08:29:19.328Z,1000.92
2018-07-10T08:30:19.320Z,1000.92
2018-07-10T08:31:19.304Z,1000.90
2018-07-10T08:32:19.335Z,1000.86
2018-07-10T08:33:19.334Z,1000.84
2018-07-10T08:34:19.273Z,1000.89
2018-07-10T08:35:19.295Z,1000.91
2018-07-10T08:36:19.248Z,1000.88
2018-07-10T08:37:19.282Z,1000.91
2018-07-10T08:38:19.239Z,1000.88
2018-07-10T08:39:19.400Z,1000.87
2018-07-10T08:40:19.207Z,1000.89
2018-07-10T08:41:19.294Z,1000.85
2018-07-10T08:42:19.343Z,1000.81
2018-07-10T08:43:19.231Z,1000.74
2018-07-10T08:44:19.190Z,1000.72
2018-07-10T08:45:19.243Z,1000.68
2018-07-10T08:46:19.155Z,1000.65
2018-07-10T08:47:19.170Z,1000.63
2018-07-10T08:48:19.117Z,1000.65
2018-07-10T08:49:19.102Z,1000.65
2018-07-10T08:50:19.272Z,1000.61
2018-07-10T08:51:19.082Z,1000.56
2018-07-10T08:52:26.704Z,1000.55
2018-07-10T08:53:19.111Z,1000.64
2018-07-10T08:54:19.976Z,1000.54
2018-07-10T08:55:19.676Z,1000.60
2018-07-10T08:56:19.078Z,1000.57
2018-07-10T08:57:33.773Z,1000.56
2018-07-10T08:58:19.009Z,1000.52
2018-07-10T08:59:18.997Z,1000.52
2018-07-10T09:00:18.996Z,1000.45
2018-07-10T09:01:18.970Z,1000.46
2018-07-10T09:02:19.002Z,1000.45
2018-07-10T09:03:18.946Z,1000.50
2018-07-10T09:04:18.962Z,1000.49
2018-07-10T09:05:18.929Z,1000.52
2018-07-10T09:06:18.957Z,1000.48
2018-07-10T09:07:18.925Z,1000.48
2018-07-10T09:08:18.894Z,1000.45
2018-07-10T09:09:18.909Z,1000.38
2018-07-10T09:10:18.874Z,1000.46
2018-07-10T09:11:18.876Z,1000.43
2018-07-10T09:12:19.074Z,1000.45
2018-07-10T09:13:18.911Z,1000.46
2018-07-10T09:14:18.825Z,1000.48
2018-07-10T09:15:19.718Z,1000.52
2018-07-10T09:16:18.813Z,1000.52
2018-07-10T09:17:18.813Z,1000.49
2018-07-10T09:18:18.781Z,1000.53
2018-07-10T09:19:18.768Z,1000.57
2018-07-10T09:20:18.773Z,1000.56
2018-07-10T09:21:18.748Z,1000.49
2018-07-10T09:22:18.758Z,1000.41
2018-07-10T09:23:18.816Z,1000.44
2018-07-10T09:24:18.720Z,1000.41
2018-07-10T09:25:18.851Z,1000.41
2018-07-10T09:26:18.708Z,1000.44
2018-07-10T09:27:18.985Z,1000.46
2018-07-10T09:28:18.692Z,1000.49
2018-07-10T09:29:18.814Z,1000.47
2018-07-10T09:30:18.773Z,1000.50
2018-07-10T09:31:18.682Z,1000.45
2018-07-10T09:32:18.670Z,1000.43
2018-07-10T09:33:18.621Z,1000.40
2018-07-10T09:34:18.602Z,1000.40
2018-07-10T09:35:18.594Z,1000.36
2018-07-10T09:36:18.580Z,1000.36
2018-07-10T09:37:18.634Z,1000.38
2018-07-10T09:38:18.597Z,1000.41
2018-07-10T09:39:18.561Z,1000.41
2018-07-10T09:40:18.534Z,1000.42
2018-07-10T09:41:18.528Z,1000.47
2018-07-10T09:42:18.676Z,1000.46
2018-07-10T09:43:18.585Z,1000.43
2018-07-10T09:44:18.523Z,1000.45
2018-07-10T09:45:18.688Z,1000.44
2018-07-10T09:46:18.473Z,1000.46
2018-07-10T09:47:18.464Z,1000.40
2018-07-10T09:48:18.468Z,1000.42
2018-07-10T09:49:18.608Z,1000.44
2018-07-10T09:50:18.626Z,1000.45
2018-07-10T09:51:18.414Z,1000.48
2018-07-10T09:52:18.404Z,1000.47
2018-07-10T09:53:18.615Z,1000.47
2018-07-10T09:54:19.626Z,1000.51
2018-07-10T09:55:18.456Z,1000.50
2018-07-10T09:56:18.360Z,1000.51
2018-07-10T09:57:18.378Z,1000.49
2018-07-10T09:58:18.371Z,1000.53
2018-07-10T09:59:18.331Z,1000.53
2018-07-10T10:00:18.404Z,1000.46
2018-07-10T10:01:18.301Z,1000.49
2018-07-10T10:02:18.292Z,1000.46
2018-07-10T10:03:18.299Z,1000.45
2018-07-10T10:04:18.332Z,1000.40
2018-07-10T10:05:18.339Z,1000.43
2018-07-10T10:06:18.509Z,1000.38
2018-07-10T10:07:19.196Z,1000.41
2018-07-10T10:08:18.702Z,1000.40
2018-07-10T10:09:18.215Z,1000.41
2018-07-10T10:10:18.776Z,1000.39
2018-07-10T10:11:19.234Z,1000.37
2018-07-10T10:12:18.179Z,1000.37
2018-07-10T10:13:18.205Z,1000.39
2018-07-10T10:14:18.165Z,1000.37
2018-07-10T10:15:41.665Z,1000.42
2018-07-10T10:16:18.134Z,1000.38
2018-07-10T10:17:18.148Z,1000.39
2018-07-10T10:18:18.146Z,1000.38
2018-07-10T10:19:18.414Z,1000.38
2018-07-10T10:20:18.095Z,1000.41
2018-07-10T10:21:18.095Z,1000.38
2018-07-10T10:22:18.069Z,1000.38
2018-07-10T10:23:18.117Z,1000.42
2018-07-10T10:24:18.056Z,1000.38
2018-07-10T10:25:18.036Z,1000.41
2018-07-10T10:26:18.023Z,1000.43
2018-07-10T10:27:18.012Z,1000.43
2018-07-10T10:28:18.031Z,1000.39
2018-07-10T10:29:17.989Z,1000.30
2018-07-10T10:30:17.983Z,1000.43
2018-07-10T10:31:17.969Z,1000.39
2018-07-10T10:32:18.093Z,1000.40
2018-07-10T10:33:17.969Z,1000.44
2018-07-10T10:34:17.933Z,1000.41
2018-07-10T10:35:17.926Z,1000.37
2018-07-10T10:36:17.924Z,1000.36
2018-07-10T10:37:17.898Z,1000.36
2018-07-10T10:38:17.910Z,1000.31
2018-07-10T10:39:17.876Z,1000.27
2018-07-10T10:40:17.869Z,1000.29
2018-07-10T10:41:18.019Z,1000.26
2018-07-10T10:42:18.017Z,1000.27
2018-07-10T10:43:17.929Z,1000.23
2018-07-10T10:44:17.822Z,1000.21
2018-07-10T10:45:17.949Z,1000.19
2018-07-10T10:46:17.841Z,1000.24
2018-07-10T10:47:17.786Z,1000.26
2018-07-10T10:48:17.802Z,1000.23
2018-07-10T10:49:17.778Z,1000.32
2018-07-10T10:50:17.754Z,1000.29
2018-07-10T10:51:17.749Z,1000.28
2018-07-10T10:52:17.731Z,1000.23
2018-07-10T10:53:17.747Z,1000.21
2018-07-10T10:54:17.727Z,1000.25
2018-07-10T10:55:17.897Z,1000.23
2018-07-10T10:56:17.886Z,1000.21
2018-07-10T10:57:17.951Z,1000.19
2018-07-10T10:58:18.322Z,1000.24
2018-07-10T10:59:17.689Z,1000.20
2018-07-10T11:00:17.646Z,1000.22
2018-07-10T11:01:17.633Z,1000.23
2018-07-10T11:02:20.524Z,1000.21
2018-07-10T11:03:17.750Z,1000.22
2018-07-10T11:04:17.799Z,1000.24
2018-07-10T11:05:17.627Z,1000.17
2018-07-10T11:06:21.210Z,1000.11
2018-07-10T11:07:17.605Z,1000.08
2018-07-10T11:08:18.094Z,1000.12
2018-07-10T11:09:17.688Z,1000.12
2018-07-10T11:10:17.571Z,1000.11
2018-07-10T11:11:17.524Z,1000.14
2018-07-10T11:12:18.173Z,1000.26
2018-07-10T11:13:17.577Z,1000.17
2018-07-10T11:14:17.596Z,1000.15
2018-07-10T11:15:17.490Z,1000.13
2018-07-10T11:16:17.464Z,1000.13
2018-07-10T11:17:17.455Z,1000.15
2018-07-10T11:18:17.495Z,1000.16
2018-07-10T11:19:17.434Z,1000.16
2018-07-10T11:20:17.459Z,1000.15
2018-07-10T11:21:17.536Z,1000.15
2018-07-10T11:22:17.398Z,1000.19
2018-07-10T11:23:18.696Z,1000.15
2018-07-10T11:24:17.443Z,1000.07
2018-07-10T11:25:18.165Z,1000.13
2018-07-10T11:26:17.413Z,1000.14
2018-07-10T11:27:17.352Z,1000.12
2018-07-10T11:28:17.369Z,1000.17
2018-07-10T11:29:17.324Z,1000.18
2018-07-10T11:30:17.345Z,1000.16
2018-07-10T11:31:18.167Z,1000.09
2018-07-10T11:32:17.443Z,1000.12
2018-07-10T11:33:18.214Z,1000.08
2018-07-10T11:34:17.294Z,1000.05
2018-07-10T11:35:17.261Z,1000.13
2018-07-10T11:36:17.470Z,1000.08
2018-07-10T11:37:17.260Z,1000.15
2018-07-10T11:38:17.308Z,1000.15
2018-07-10T11:39:17.838Z,1000.12
2018-07-10T11:40:17.580Z,1000.10
2018-07-10T11:41:17.197Z,1000.14
2018-07-10T11:42:33.211Z,1000.12
2018-07-10T11:43:18.398Z,1000.14
2018-07-10T11:44:40.634Z,1000.13
2018-07-10T11:45:17.396Z,1000.09
2018-07-10T11:46:17.149Z,1000.01
2018-07-10T11:47:25.420Z,1000.05
2018-07-10T11:48:19.700Z,1000.03
2018-07-10T11:49:17.159Z,1000.06
2018-07-10T11:50:18.855Z,1000.06
2018-07-10T11:51:40.742Z,1000.10
2018-07-10T11:52:17.685Z,1000.08
2018-07-10T11:53:17.714Z,1000.04
2018-07-10T11:54:17.070Z,1000.07
2018-07-10T11:55:17.041Z,1000.05
2018-07-10T11:56:17.027Z,999.99
2018-07-10T11:57:17.014Z,1000.02
2018-07-10T11:58:17.005Z,1000.03
2018-07-10T11:59:17.254Z,1000.02
2018-07-10T12:00:17.093Z,1000.00
2018-07-10T12:01:19.669Z,999.96
2018-07-10T12:02:16.953Z,999.89
2018-07-10T12:03:17.359Z,999.93
2018-07-10T12:04:18.710Z,999.92
2018-07-10T12:05:18.571Z,999.93
2018-07-10T12:06:16.917Z,999.94